CYHUCYSC

Guest
Details From CYHU - St Hubert
To CYSC - SHERBROOKE
Flight Number -
Tags generated
Created
Modified
Stats Distance 78 nm / 145 km
Max Altitude 1,700 ft / 518 m
Waypoints 3
Social Downloads 1
Likes 0
Share VATSIM

Download

Looking for another format? Having issues loading an existing format? Contact us
Advertisement - Login to hide

Notes

Basic altitude profile: - Ascent Rate: 2500ft/min - Ascent Speed: 250kts - Cruise Altitude: 35000ft - Cruise Speed: 420kts - Descent Rate: 1500ft/min - Descent Speed: 250kts

Route

CYHU YSC CYSC

ID Type Via Altitude Latitude Longitude Leg Dist Tot Dist Heading (true) Name
O CYHU APT - 0 ft / 0 m 45.51430˚ -73.41635˚ - 0 nm - St Hubert
YSC VOR - 1,700 ft / 518 m 45.31633˚ -71.78811˚ 69 nm 69 nm 99° / 100° SHERBROOKE VORTAC
O CYSC APT - 0 ft / 0 m 45.43849˚ -71.69137˚ 8 nm 78 nm 29° / 29° SHERBROOKE

Altitude Profile

Advertisement - Login to hide

CYHU

Details ICAO CYHU (YHU)
Name St Hubert
Region Canada
Timezone America/Montreal (UTC-4.0)
Stats Elevation 90 ft / 27 m (AMSL)
Location 45.514297° -73.416351°
Runways 3
Magnetic Variation 14.469° W

METAR

CYHU 201600Z AUTO 30007KT 9SM BKN033 OVC040 17/12 A2990 RMK SLP127 DENSITY ALT 300FT

Decode

TAF

TAF TAF AMD CYHU 201147Z 2012/2112 24005KT 6SM -DZ BR OVC040 TEMPO 2012/2014 4SM -RA BR BKN020 OVC030 FM201400 33015KT P6SM BKN025 TEMPO 2014/2016 OVC020 FM201600 35010KT P6SM FEW040 BECMG 2020/2022 VRB03KT RMK FCST BASED ON AUTO OBS. NXT FCST BY 201800Z

Decode

Departure Runways

ID Width Length Bearing (true) Bearing (mag) Surface Threshold Offset Overrun Length
06L 150 ft / 46 m 7,870 ft / 2,399 m 46.95° 61.42° Asphalt 1,100 ft / 335 m 0 ft / 0 m
06R 100 ft / 30 m 3,874 ft / 1,181 m 47.16° 61.63° Asphalt 0 ft / 0 m 0 ft / 0 m
10 150 ft / 46 m 2,787 ft / 849 m 83.75° 98.22° Asphalt 0 ft / 0 m 0 ft / 0 m
24L 100 ft / 30 m 3,874 ft / 1,181 m 227.16° 241.63° Asphalt 0 ft / 0 m 0 ft / 0 m
24R 150 ft / 46 m 7,870 ft / 2,399 m 226.97° 241.44° Asphalt 0 ft / 0 m 90 ft / 27 m
28 150 ft / 46 m 2,787 ft / 849 m 263.75° 278.22° Asphalt 0 ft / 0 m 0 ft / 0 m

CYSC

Details ICAO CYSC (YSC)
Name SHERBROOKE
Region Canada
Timezone America/Montreal (UTC-4.0)
Stats Elevation 792 ft / 241 m (AMSL)
Location 45.438492° -71.691369°
Runways 1
Magnetic Variation 15.231° W

METAR

CYSC 201623Z AUTO 30009KT 9SM SCT021 OVC029 15/12 A2986 RMK SLP117 DENSITY ALT 1000FT

Decode

TAF

TAF AMD CYSC 201623Z 2016/2023 30010KT P6SM OVC030 TEMPO 2016/2020 BKN020 OVC030 FM202100 30012KT P6SM SCT030 BKN220 RMK FCST BASED ON AUTO OBS. NXT FCST BY 201800Z

Decode

Destination Runways

ID Width Length Bearing (true) Bearing (mag) Surface Threshold Offset Overrun Length
13 150 ft / 46 m 5,988 ft / 1,825 m 118.88° 134.11° Asphalt 0 ft / 0 m 0 ft / 0 m
31 150 ft / 46 m 5,988 ft / 1,825 m 298.90° 314.13° Asphalt 0 ft / 0 m 0 ft / 0 m

Popular Alternatives